createdAt,value
2024-03-05T00:01:38.701Z,38.65
2024-03-05T00:04:09.133Z,46.67
2024-03-05T00:06:38.764Z,43.00
2024-03-05T00:09:06.632Z,47.47
2024-03-05T00:11:34.234Z,40.30
2024-03-05T00:14:01.488Z,42.03
2024-03-05T00:16:29.519Z,48.03
2024-03-05T00:18:56.747Z,35.85
2024-03-05T00:21:23.878Z,37.97
2024-03-05T00:23:51.298Z,35.83
2024-03-05T00:26:19.537Z,35.63
2024-03-05T00:28:46.658Z,33.28
2024-03-05T00:31:14.191Z,39.20
2024-03-05T00:33:41.349Z,39.60
2024-03-05T00:36:08.895Z,39.60
2024-03-05T00:38:36.330Z,36.55
2024-03-05T00:41:03.660Z,43.58
2024-03-05T00:43:31.041Z,31.98
2024-03-05T00:45:58.525Z,36.92
2024-03-05T00:48:25.636Z,34.28
2024-03-05T00:50:53.022Z,36.70
2024-03-05T00:53:21.777Z,33.28
2024-03-05T00:55:48.907Z,34.97
2024-03-05T00:58:16.580Z,32.22
2024-03-05T01:00:44.562Z,31.65
2024-03-05T01:03:11.719Z,31.65
2024-03-05T01:05:38.865Z,34.05
2024-03-05T01:08:06.597Z,30.33
2024-03-05T01:10:33.824Z,33.55
2024-03-05T01:13:01.482Z,33.40
2024-03-05T01:15:30.281Z,30.30
2024-03-05T01:17:58.748Z,44.40
2024-03-05T01:20:27.042Z,32.80
2024-03-05T01:22:54.548Z,32.80
2024-03-05T01:25:21.759Z,30.48
2024-03-05T01:27:48.891Z,31.55
2024-03-05T01:30:17.198Z,37.13
2024-03-05T01:33:07.001Z,34.55
2024-03-05T01:35:34.696Z,31.85
2024-03-05T01:38:01.788Z,30.40
2024-03-05T01:40:29.051Z,29.75
2024-03-05T01:42:56.495Z,30.20
2024-03-05T01:45:24.347Z,28.67
2024-03-05T01:47:51.447Z,35.58
2024-03-05T01:50:19.649Z,30.48
2024-03-05T01:52:47.496Z,28.33
2024-03-05T01:55:16.057Z,27.98
2024-03-05T01:57:48.015Z,34.22
2024-03-05T02:00:17.306Z,32.78
2024-03-05T02:02:48.382Z,28.20
2024-03-05T02:05:15.567Z,30.30
2024-03-05T02:07:44.084Z,30.23
2024-03-05T02:10:11.538Z,30.85
2024-03-05T02:12:39.244Z,32.53
2024-03-05T02:15:07.459Z,32.08
2024-03-05T02:17:34.845Z,33.80
2024-03-05T02:20:02.489Z,29.77
2024-03-05T02:22:30.161Z,31.75
2024-03-05T02:24:59.216Z,33.40
2024-03-05T02:27:30.512Z,30.58
2024-03-05T02:30:04.072Z,45.15
2024-03-05T02:32:34.437Z,33.33
2024-03-05T02:35:03.269Z,31.02
2024-03-05T02:37:30.401Z,32.88
2024-03-05T02:39:59.125Z,35.70
2024-03-05T02:42:26.509Z,38.15
2024-03-05T02:44:53.625Z,47.35
2024-03-05T02:47:21.442Z,46.45
2024-03-05T02:49:49.572Z,35.20
2024-03-05T02:52:17.015Z,40.25
2024-03-05T02:54:44.715Z,38.67
2024-03-05T02:57:12.109Z,40.15
2024-03-05T02:59:39.256Z,34.53
2024-03-05T03:02:06.876Z,34.35
2024-03-05T03:04:34.556Z,38.38
2024-03-05T03:07:02.005Z,36.15
2024-03-05T03:09:30.700Z,37.78
2024-03-05T03:11:58.131Z,35.13
2024-03-05T03:14:25.784Z,37.80
2024-03-05T03:16:53.616Z,35.42
2024-03-05T03:19:23.058Z,39.40
2024-03-05T03:21:50.613Z,45.17
2024-03-05T03:24:19.197Z,37.15
2024-03-05T03:26:46.784Z,41.88
2024-03-05T03:29:14.373Z,32.80
2024-03-05T03:31:48.297Z,40.58
2024-03-05T03:34:18.571Z,35.72
2024-03-05T03:36:51.398Z,34.10
2024-03-05T03:39:25.327Z,34.63
2024-03-05T03:41:56.362Z,38.28
2024-03-05T03:44:25.650Z,36.78
2024-03-05T03:46:52.735Z,41.78
2024-03-05T03:49:25.789Z,40.12
2024-03-05T03:51:55.213Z,36.22
2024-03-05T03:54:23.048Z,37.90
2024-03-05T03:56:50.704Z,42.78
2024-03-05T03:59:18.718Z,40.50
2024-03-05T04:01:51.163Z,34.03
2024-03-05T04:04:18.769Z,28.62
2024-03-05T04:06:49.321Z,42.53
2024-03-05T04:09:16.519Z,40.80
2024-03-05T04:11:44.070Z,47.58
2024-03-05T04:14:11.644Z,40.05
2024-03-05T04:16:43.987Z,43.45
2024-03-05T04:19:12.097Z,50.72
2024-03-05T04:21:47.100Z,69.37
2024-03-05T04:24:15.239Z,48.78
2024-03-05T04:26:42.974Z,35.90
2024-03-05T04:29:17.709Z,38.90
2024-03-05T04:31:54.155Z,42.53
2024-03-05T04:34:26.159Z,40.00
2024-03-05T04:36:56.207Z,45.20
2024-03-05T04:39:25.255Z,47.40
2024-03-05T04:41:52.875Z,46.67
2024-03-05T04:44:20.820Z,46.75
2024-03-05T04:46:49.105Z,43.70
2024-03-05T04:49:17.348Z,38.28
2024-03-05T04:51:44.847Z,43.87
2024-03-05T04:54:12.216Z,46.83
2024-03-05T04:56:39.805Z,39.60
2024-03-05T04:59:07.307Z,45.28
2024-03-05T05:01:35.615Z,47.72
2024-03-05T05:04:03.813Z,56.15
2024-03-05T05:06:33.677Z,47.20
2024-03-05T05:09:01.795Z,40.15
2024-03-05T05:11:30.335Z,45.45
2024-03-05T05:13:58.421Z,44.45
2024-03-05T05:16:25.793Z,45.97
2024-03-05T05:18:54.956Z,56.25
2024-03-05T05:21:23.366Z,45.05
2024-03-05T05:23:50.864Z,49.75
2024-03-05T05:26:18.099Z,45.72
2024-03-05T05:28:45.564Z,37.47
2024-03-05T05:31:25.640Z,45.70
2024-03-05T05:33:56.227Z,69.07
2024-03-05T05:36:23.860Z,44.30
2024-03-05T05:38:51.599Z,47.15
2024-03-05T05:41:22.727Z,64.47
2024-03-05T05:43:50.220Z,50.20
2024-03-05T05:46:20.252Z,48.87
2024-03-05T05:48:50.618Z,55.40
2024-03-05T05:51:23.550Z,46.13
2024-03-05T05:53:52.109Z,50.33
2024-03-05T05:56:22.172Z,54.15
2024-03-05T05:58:49.566Z,56.50
2024-03-05T06:01:17.147Z,48.92
2024-03-05T06:03:47.309Z,46.88
2024-03-05T06:06:17.958Z,51.53
2024-03-05T06:08:47.350Z,70.05
2024-03-05T06:11:14.646Z,60.72
2024-03-05T06:13:42.898Z,64.37
2024-03-05T06:16:11.361Z,50.35
2024-03-05T06:18:38.472Z,46.35
2024-03-05T06:21:06.572Z,52.55
2024-03-05T06:23:36.174Z,53.33
2024-03-05T06:26:03.530Z,55.45
2024-03-05T06:28:30.892Z,45.28
2024-03-05T06:30:58.392Z,46.37
2024-03-05T06:33:26.012Z,51.42
2024-03-05T06:35:53.264Z,39.10
2024-03-05T06:38:20.838Z,50.70
2024-03-05T06:40:48.495Z,53.75
2024-03-05T06:43:22.443Z,65.30
2024-03-05T06:45:50.646Z,61.97
2024-03-05T06:48:24.864Z,55.25
2024-03-05T06:51:01.890Z,48.92
2024-03-05T06:53:48.289Z,51.47
2024-03-05T06:56:34.518Z,46.03
2024-03-05T06:59:02.232Z,50.28
2024-03-05T07:01:30.001Z,44.75
2024-03-05T07:03:58.207Z,49.72
2024-03-05T07:06:25.391Z,46.72
2024-03-05T07:08:55.160Z,52.75
2024-03-05T07:11:25.985Z,42.83
2024-03-05T07:13:53.898Z,43.50
2024-03-05T07:16:21.421Z,41.15
2024-03-05T07:18:51.957Z,46.08
2024-03-05T07:21:22.926Z,39.78
2024-03-05T07:23:52.540Z,45.17
2024-03-05T07:26:22.282Z,36.95
2024-03-05T07:28:50.876Z,39.53
2024-03-05T07:31:19.428Z,36.00
2024-03-05T07:34:02.266Z,39.17
2024-03-05T07:36:29.436Z,31.33
2024-03-05T07:39:00.786Z,39.70
2024-03-05T07:41:34.101Z,36.65
2024-03-05T07:44:07.341Z,46.55
2024-03-05T07:46:36.449Z,38.17
2024-03-05T07:49:05.578Z,38.00
2024-03-05T07:51:41.136Z,38.08
2024-03-05T07:54:14.232Z,41.92
2024-03-05T07:56:44.455Z,33.13
2024-03-05T07:59:24.321Z,31.45
2024-03-05T08:01:53.169Z,36.00
2024-03-05T08:04:20.633Z,36.20
2024-03-05T08:06:47.934Z,39.40
2024-03-05T08:09:15.861Z,38.90
2024-03-05T08:11:43.296Z,41.92
2024-03-05T08:14:10.589Z,34.35
2024-03-05T08:16:39.834Z,43.80
2024-03-05T08:19:10.233Z,46.37
2024-03-05T08:21:37.511Z,38.30
2024-03-05T08:24:06.719Z,40.78
2024-03-05T08:26:35.958Z,36.70
2024-03-05T08:29:05.509Z,39.05
2024-03-05T08:31:33.338Z,34.38
2024-03-05T08:34:05.999Z,29.52
2024-03-05T08:36:38.670Z,33.45
2024-03-05T08:39:16.857Z,32.70
2024-03-05T08:41:45.781Z,30.85
2024-03-05T08:44:13.361Z,31.42
2024-03-05T08:46:40.583Z,35.53
2024-03-05T08:49:09.146Z,28.00
2024-03-05T08:51:39.449Z,35.35
2024-03-05T08:54:10.289Z,34.50
2024-03-05T08:56:41.199Z,23.38
2024-03-05T08:59:08.673Z,27.83
2024-03-05T09:01:36.489Z,27.55
2024-03-05T09:04:07.444Z,28.12
2024-03-05T09:06:34.555Z,23.00
2024-03-05T09:09:01.868Z,24.63
2024-03-05T09:11:30.592Z,23.02
2024-03-05T09:13:57.845Z,22.00
2024-03-05T09:16:26.979Z,19.08
2024-03-05T09:18:55.163Z,29.15
2024-03-05T09:21:22.390Z,22.37
2024-03-05T09:23:51.252Z,26.60
2024-03-05T09:26:20.244Z,28.90
2024-03-05T09:28:48.468Z,20.80
2024-03-05T09:31:15.796Z,24.45
2024-03-05T09:33:43.394Z,26.15
2024-03-05T09:36:10.644Z,27.20
2024-03-05T09:38:38.215Z,25.35
2024-03-05T09:41:14.489Z,22.05
2024-03-05T09:46:21.318Z,27.00
2024-03-05T09:48:49.051Z,33.90
2024-03-05T09:51:16.746Z,23.70
2024-03-05T09:53:44.172Z,22.37
2024-03-05T09:56:11.342Z,26.15
2024-03-05T09:58:42.625Z,25.83
2024-03-05T10:04:32.934Z,19.85
2024-03-05T10:07:00.956Z,25.85
2024-03-05T10:09:28.670Z,25.17
2024-03-05T10:11:56.991Z,26.10
2024-03-05T10:14:25.612Z,26.33
2024-03-05T10:17:01.665Z,23.40
2024-03-05T10:19:41.700Z,20.33
2024-03-05T10:22:12.252Z,23.12
2024-03-05T10:24:41.994Z,24.58
2024-03-05T10:27:10.820Z,21.73
2024-03-05T10:29:40.092Z,24.10
2024-03-05T10:32:12.865Z,24.27
2024-03-05T10:34:44.677Z,30.10
2024-03-05T10:37:14.199Z,29.05
2024-03-05T10:39:48.756Z,26.85
2024-03-05T10:42:18.410Z,33.20
2024-03-05T10:44:47.878Z,34.78
2024-03-05T10:47:16.395Z,24.95
2024-03-05T10:53:17.923Z,20.00
2024-03-05T10:59:16.911Z,23.17
2024-03-05T11:01:46.423Z,24.60
2024-03-05T11:04:20.165Z,23.75
2024-03-05T11:06:56.582Z,19.85
2024-03-05T11:09:37.796Z,26.45
2024-03-05T11:12:10.067Z,22.13
2024-03-05T11:14:38.951Z,20.52
2024-03-05T11:17:13.867Z,37.60
2024-03-05T11:19:44.308Z,23.20
2024-03-05T11:22:28.430Z,23.58
2024-03-05T11:25:06.611Z,22.10
2024-03-05T11:27:38.057Z,24.60
2024-03-05T11:30:13.550Z,20.90
2024-03-05T11:32:45.041Z,22.95
2024-03-05T11:35:14.840Z,23.65
2024-03-05T11:37:53.406Z,26.98
2024-03-05T11:40:29.695Z,21.10
2024-03-05T11:42:58.894Z,18.60
2024-03-05T11:45:46.028Z,20.37
2024-03-05T11:48:16.367Z,22.58
2024-03-05T11:50:44.852Z,17.67
2024-03-05T11:53:13.325Z,21.00
2024-03-05T11:55:42.744Z,22.83
2024-03-05T11:58:12.376Z,18.98
2024-03-05T12:00:40.583Z,18.70
2024-03-05T12:03:08.905Z,22.52
2024-03-05T12:05:43.653Z,22.05
2024-03-05T12:08:14.926Z,17.60
2024-03-05T12:10:43.330Z,19.37
2024-03-05T12:13:18.954Z,20.70
2024-03-05T12:16:13.085Z,26.92
2024-03-05T12:18:44.227Z,15.88
2024-03-05T12:21:12.052Z,14.70
2024-03-05T12:23:42.530Z,26.30
2024-03-05T12:26:12.134Z,16.58
2024-03-05T12:28:40.189Z,14.80
2024-03-05T12:31:27.941Z,21.85
2024-03-05T12:33:58.211Z,14.10
2024-03-05T12:36:27.233Z,17.75
2024-03-05T12:38:58.454Z,16.05
2024-03-05T12:41:28.085Z,19.80
2024-03-05T12:43:57.227Z,20.98
2024-03-05T12:46:25.167Z,19.95
2024-03-05T12:48:59.034Z,25.42
2024-03-05T12:51:27.270Z,20.50
2024-03-05T12:54:08.966Z,19.37
2024-03-05T12:56:46.622Z,16.35
2024-03-05T12:59:19.537Z,23.10
2024-03-05T13:01:47.604Z,19.62
2024-03-05T13:04:17.158Z,22.30
2024-03-05T13:06:48.800Z,35.90
2024-03-05T13:09:21.935Z,30.02
2024-03-05T13:11:56.688Z,27.02
2024-03-05T13:14:27.324Z,21.02
2024-03-05T13:16:57.338Z,27.35
2024-03-05T13:19:25.588Z,23.92
2024-03-05T13:21:54.485Z,24.42
2024-03-05T13:24:22.951Z,27.20
2024-03-05T13:26:51.224Z,24.02
2024-03-05T13:29:20.949Z,28.92
2024-03-05T13:31:49.741Z,23.33
2024-03-05T13:34:23.632Z,28.62
2024-03-05T13:36:51.934Z,26.98
2024-03-05T13:39:25.698Z,26.75
2024-03-05T13:45:24.268Z,28.75
2024-03-05T13:47:53.453Z,29.55
2024-03-05T13:54:04.272Z,26.02
2024-03-05T13:56:38.981Z,26.50
2024-03-05T13:59:11.889Z,29.37
2024-03-05T14:01:43.898Z,26.60
2024-03-05T14:04:27.615Z,27.95
2024-03-05T14:07:08.741Z,25.12
2024-03-05T14:09:40.071Z,33.47
2024-03-05T14:12:21.068Z,41.63
2024-03-05T14:14:49.802Z,29.12
2024-03-05T14:17:17.692Z,29.58
2024-03-05T14:19:49.007Z,24.25
2024-03-05T14:22:18.670Z,29.08
2024-03-05T14:24:46.512Z,30.30
2024-03-05T14:27:17.328Z,35.00
2024-03-05T14:29:51.084Z,31.87
2024-03-05T14:32:20.766Z,37.05
2024-03-05T14:34:57.195Z,31.90
2024-03-05T14:37:25.207Z,32.10
2024-03-05T14:43:28.789Z,28.67
2024-03-05T14:49:28.834Z,28.60
2024-03-05T14:51:57.268Z,31.58
2024-03-05T14:54:25.328Z,30.02
2024-03-05T14:56:53.256Z,28.95
2024-03-05T14:59:24.532Z,33.35
2024-03-05T15:01:54.619Z,31.62
2024-03-05T15:04:22.740Z,32.90
2024-03-05T15:06:51.605Z,36.88
2024-03-05T15:09:24.200Z,32.88
2024-03-05T15:11:52.588Z,32.03
2024-03-05T15:14:23.860Z,30.73
2024-03-05T15:20:26.150Z,29.08
2024-03-05T15:23:09.415Z,27.33
2024-03-05T15:25:49.402Z,29.48
2024-03-05T15:28:16.843Z,36.30
2024-03-05T15:30:51.820Z,28.48
2024-03-05T15:33:20.910Z,29.37
2024-03-05T15:35:52.694Z,28.27
2024-03-05T15:38:23.897Z,29.37
2024-03-05T15:40:56.671Z,34.83
2024-03-05T15:43:24.142Z,31.23
2024-03-05T15:46:08.797Z,41.30
2024-03-05T15:48:43.093Z,31.55
2024-03-05T15:51:13.177Z,28.80
2024-03-05T15:53:54.359Z,33.08
2024-03-05T15:57:02.529Z,28.30
2024-03-05T16:02:31.504Z,29.37
2024-03-05T16:05:17.560Z,32.58
2024-03-05T16:07:55.051Z,31.95
2024-03-05T16:10:30.926Z,30.45
2024-03-05T16:13:08.669Z,36.40
2024-03-05T16:15:37.704Z,31.85
2024-03-05T16:18:09.433Z,27.23
2024-03-05T16:20:40.690Z,26.75
2024-03-05T16:23:11.964Z,28.92
2024-03-05T16:25:52.778Z,36.17
2024-03-05T16:28:22.380Z,28.70
2024-03-05T16:30:52.834Z,25.58
2024-03-05T16:33:20.459Z,29.70
2024-03-05T16:35:48.336Z,30.67
2024-03-05T16:38:16.125Z,30.27
2024-03-05T16:40:43.615Z,35.60
2024-03-05T16:43:11.628Z,37.17
2024-03-05T16:45:39.790Z,29.55
2024-03-05T16:48:10.462Z,36.38
2024-03-05T16:50:40.579Z,32.75
2024-03-05T16:53:10.398Z,30.67
2024-03-05T16:55:38.965Z,43.58
2024-03-05T16:58:13.464Z,33.05
2024-03-05T17:00:48.839Z,34.47
2024-03-05T17:03:20.026Z,39.70
2024-03-05T17:05:52.208Z,34.65
2024-03-05T17:10:55.960Z,44.22
2024-03-05T17:13:27.295Z,38.75
2024-03-05T17:16:01.635Z,41.72
2024-03-05T17:18:31.991Z,36.78
2024-03-05T17:20:59.887Z,36.80
2024-03-05T17:23:28.278Z,34.42
2024-03-05T17:25:57.728Z,41.08
2024-03-05T17:28:27.954Z,32.80
2024-03-05T17:33:26.920Z,33.35
2024-03-05T17:35:58.401Z,33.67
2024-03-05T17:38:29.494Z,45.45
2024-03-05T17:40:59.299Z,34.13
2024-03-05T17:43:26.650Z,34.47
2024-03-05T17:45:54.373Z,40.75
2024-03-05T17:48:22.760Z,40.67
2024-03-05T17:50:50.067Z,39.88
2024-03-05T17:53:17.455Z,39.58
2024-03-05T17:55:46.374Z,35.33
2024-03-05T17:58:13.795Z,36.67
2024-03-05T18:00:47.245Z,36.85
2024-03-05T18:03:16.141Z,40.75
2024-03-05T18:05:47.018Z,38.83
2024-03-05T18:08:15.804Z,39.75
2024-03-05T18:10:43.349Z,40.72
2024-03-05T18:13:11.049Z,41.15
2024-03-05T18:15:38.579Z,42.38
2024-03-05T18:18:07.745Z,44.80
2024-03-05T18:20:36.797Z,50.17
2024-03-05T18:23:06.823Z,49.70
2024-03-05T18:25:36.352Z,47.97
2024-03-05T18:28:06.303Z,39.73
2024-03-05T18:30:38.834Z,41.83
2024-03-05T18:33:08.698Z,37.22
2024-03-05T18:35:40.687Z,40.83
2024-03-05T18:38:20.804Z,46.72
2024-03-05T18:40:58.465Z,45.90
2024-03-05T18:43:30.247Z,55.20
2024-03-05T18:46:02.472Z,41.17
2024-03-05T18:48:30.668Z,51.33
2024-03-05T18:50:58.680Z,46.03
2024-03-05T18:53:36.115Z,48.90
2024-03-05T18:56:12.629Z,41.60
2024-03-05T18:58:42.942Z,42.00
2024-03-05T19:01:12.103Z,44.75
2024-03-05T19:03:40.738Z,40.90
2024-03-05T19:06:08.808Z,50.72
2024-03-05T19:08:37.989Z,43.75
2024-03-05T19:11:07.597Z,50.85
2024-03-05T19:13:37.482Z,55.47
2024-03-05T19:18:34.023Z,63.92
2024-03-05T19:21:02.574Z,46.13
2024-03-05T19:23:31.385Z,62.33
2024-03-05T19:26:16.789Z,49.60
2024-03-05T19:29:15.344Z,39.13
2024-03-05T19:31:43.892Z,45.28
2024-03-05T19:34:13.176Z,45.00
2024-03-05T19:36:43.217Z,46.88
2024-03-05T19:39:14.741Z,39.20
2024-03-05T19:41:48.509Z,42.40
2024-03-05T19:44:20.074Z,45.17
2024-03-05T19:46:49.695Z,46.85
2024-03-05T19:49:21.286Z,43.33
2024-03-05T19:51:51.818Z,43.17
2024-03-05T19:54:25.465Z,45.50
2024-03-05T19:56:56.995Z,41.05
2024-03-05T19:59:32.078Z,46.10
2024-03-05T20:02:01.971Z,40.60
2024-03-05T20:04:30.726Z,39.42
2024-03-05T20:06:59.593Z,41.28
2024-03-05T20:09:28.800Z,46.58
2024-03-05T20:11:56.936Z,39.63
2024-03-05T20:14:25.439Z,43.17
2024-03-05T20:19:30.141Z,42.28
2024-03-05T20:22:02.430Z,40.20
2024-03-05T20:24:31.010Z,40.83
2024-03-05T20:27:00.537Z,42.78
2024-03-05T20:29:29.327Z,35.40
2024-03-05T20:32:02.631Z,43.80
2024-03-05T20:34:32.815Z,47.35
2024-03-05T20:37:02.125Z,46.22
2024-03-05T20:39:33.926Z,37.42
2024-03-05T20:42:04.175Z,38.35
2024-03-05T20:44:34.784Z,45.95
2024-03-05T20:47:03.965Z,45.45
2024-03-05T20:49:32.139Z,38.70
2024-03-05T20:52:00.238Z,34.13
2024-03-05T20:54:37.794Z,38.60
2024-03-05T20:57:05.935Z,36.97
2024-03-05T20:59:36.065Z,39.67
2024-03-05T21:02:10.595Z,38.28
2024-03-05T21:04:39.952Z,41.17
2024-03-05T21:07:07.970Z,36.28
2024-03-05T21:09:35.882Z,44.88
2024-03-05T21:12:05.713Z,43.45
2024-03-05T21:14:33.527Z,37.58
2024-03-05T21:17:01.348Z,41.17
2024-03-05T21:19:32.398Z,36.22
2024-03-05T21:22:00.556Z,38.38
2024-03-05T21:24:30.723Z,39.20
2024-03-05T21:27:15.993Z,47.62
2024-03-05T21:29:46.582Z,46.40
2024-03-05T21:32:15.037Z,37.33
2024-03-05T21:34:42.845Z,40.65
2024-03-05T21:37:10.693Z,34.80
2024-03-05T21:39:38.665Z,41.55
2024-03-05T21:42:07.141Z,43.10
2024-03-05T21:44:42.393Z,39.05
2024-03-05T21:47:12.569Z,40.63
2024-03-05T21:49:40.363Z,47.42
2024-03-05T21:52:08.560Z,38.45
2024-03-05T21:54:36.598Z,36.35
2024-03-05T21:57:07.654Z,40.25
2024-03-05T21:59:35.472Z,36.65
2024-03-05T22:02:03.567Z,37.65
2024-03-05T22:04:31.675Z,40.97
2024-03-05T22:06:59.393Z,37.95
2024-03-05T22:09:27.161Z,39.63
2024-03-05T22:11:55.284Z,33.22
2024-03-05T22:14:23.220Z,39.38
2024-03-05T22:16:50.956Z,32.67
2024-03-05T22:19:19.004Z,39.97
2024-03-05T22:21:48.200Z,41.10
2024-03-05T22:24:16.901Z,36.10
2024-03-05T22:26:47.823Z,38.72
2024-03-05T22:29:15.652Z,33.22
2024-03-05T22:31:43.726Z,40.65
2024-03-05T22:34:11.868Z,40.75
2024-03-05T22:36:39.684Z,40.12
2024-03-05T22:39:07.106Z,39.13
2024-03-05T22:41:34.629Z,35.15
2024-03-05T22:44:01.910Z,44.38
2024-03-05T22:46:30.713Z,43.35
2024-03-05T22:48:58.325Z,38.97
2024-03-05T22:51:25.743Z,46.40
2024-03-05T22:53:52.986Z,39.17
2024-03-05T22:56:20.809Z,39.10
2024-03-05T22:58:48.269Z,42.40
2024-03-05T23:01:15.767Z,37.58
2024-03-05T23:03:43.742Z,37.03
2024-03-05T23:06:18.607Z,42.47
2024-03-05T23:08:49.093Z,38.40
2024-03-05T23:11:16.541Z,41.50
2024-03-05T23:13:43.902Z,43.05
2024-03-05T23:16:11.903Z,42.88
2024-03-05T23:18:39.122Z,42.03
2024-03-05T23:21:06.923Z,38.28
2024-03-05T23:23:34.888Z,41.50
2024-03-05T23:26:03.894Z,41.55
2024-03-05T23:28:31.132Z,41.03
2024-03-05T23:30:59.737Z,46.55
2024-03-05T23:33:27.136Z,46.80
2024-03-05T23:35:54.596Z,43.13
2024-03-05T23:38:22.190Z,39.15
2024-03-05T23:40:49.456Z,36.55
2024-03-05T23:43:17.136Z,35.00
2024-03-05T23:45:45.151Z,45.63
2024-03-05T23:48:12.417Z,45.45
2024-03-05T23:50:39.638Z,44.28
2024-03-05T23:53:09.342Z,39.50
2024-03-05T23:55:36.574Z,41.30
2024-03-05T23:58:05.759Z,38.60
